Time;durP1;ratioP1;P1;durP2;ratioP2;P2;SDS_P1;SDS_P2;PMS_P1;PMS_P2;Temp;Humidity;BMP_temperature;BMP_pressure;BME280_temperature;BME280_humidity;BME280_pressure;Samples;Min_cycle;Max_cycle;Signal;HPM_P1;HPM_P2
2023/08/21 00:01:21;;;;;;;6.95;1.63;;;;;;;;;;4979687;28;25141;-71
2023/08/21 00:03:47;;;;;;;5.93;2.00;;;;;;;;;;4982329;28;25066;-73
2023/08/21 00:06:13;;;;;;;5.63;1.45;;;;;;;;;;4989445;28;25050;-72
2023/08/21 00:08:39;;;;;;;5.72;1.00;;;;;;;;;;4984178;28;25061;-73
2023/08/21 00:11:05;;;;;;;4.07;1.77;;;;;;;;;;4986586;28;25053;-73
2023/08/21 00:13:31;;;;;;;3.78;1.45;;;;;;;;;;4983284;28;25072;-74
2023/08/21 00:15:57;;;;;;;6.35;1.98;;;;;;;;;;4983782;28;25074;-72
2023/08/21 00:18:23;;;;;;;4.82;1.70;;;;;;;;;;4988248;28;25047;-70
2023/08/21 00:20:49;;;;;;;4.22;1.80;;;;;;;;;;4987751;28;25115;-71
2023/08/21 00:23:16;;;;;;;5.60;1.42;;;;;;;;;;4995890;28;25072;-71
2023/08/21 00:25:42;;;;;;;5.82;1.65;;;;;;;;;;4987187;28;25060;-72
2023/08/21 00:28:08;;;;;;;5.97;2.10;;;;;;;;;;4986424;28;25080;-72
2023/08/21 00:30:34;;;;;;;5.57;1.67;;;;;;;;;;4987897;28;25060;-72
2023/08/21 00:33:00;;;;;;;6.70;2.20;;;;;;;;;;4992217;28;25107;-71
2023/08/21 00:35:26;;;;;;;4.95;1.48;;;;;;;;;;4995775;28;25067;-73
2023/08/21 00:37:52;;;;;;;4.60;1.95;;;;;;;;;;4993512;28;25053;-72
2023/08/21 00:40:18;;;;;;;9.45;1.92;;;;;;;;;;4985616;28;25072;-71
2023/08/21 00:42:44;;;;;;;6.00;1.48;;;;;;;;;;4977386;28;25089;-73
2023/08/21 00:45:11;;;;;;;4.15;1.88;;;;;;;;;;4981642;28;25134;-70
2023/08/21 00:47:37;;;;;;;3.50;1.15;;;;;;;;;;4993039;28;25095;-71
2023/08/21 00:50:04;;;;;;;7.18;1.60;;;;;;;;;;4998475;28;25076;-71
2023/08/21 00:52:30;;;;;;;4.07;1.45;;;;;;;;;;4990538;28;25067;-70
2023/08/21 00:54:57;;;;;;;6.93;2.20;;;;;;;;;;4990040;28;25053;-71
2023/08/21 00:57:23;;;;;;;6.68;2.30;;;;;;;;;;4991881;28;25146;-71
2023/08/21 00:59:49;;;;;;;5.93;1.73;;;;;;;;;;4984278;28;25080;-71
2023/08/21 01:02:16;;;;;;;5.93;1.70;;;;;;;;;;4980056;28;25065;-72
2023/08/21 01:04:42;;;;;;;5.55;2.08;;;;;;;;;;4987301;28;25113;-72
2023/08/21 01:07:09;;;;;;;7.10;2.03;;;;;;;;;;4995183;28;25060;-75
2023/08/21 01:09:41;;;;;;;9.73;1.83;;;;;;;;;;4997137;28;25158;-73
2023/08/21 01:12:15;;;;;;;8.50;2.33;;;;;;;;;;4995376;28;25067;-74
2023/08/21 01:15:04;;;;;;;7.43;2.10;;;;;;;;;;4988743;28;25073;-72
2023/08/21 01:17:31;;;;;;;4.82;1.98;;;;;;;;;;4978275;28;25063;-74
2023/08/21 01:19:57;;;;;;;6.32;2.13;;;;;;;;;;4980216;28;25054;-72
2023/08/21 01:22:27;;;;;;;2.75;1.23;;;;;;;;;;4993699;28;25073;-71
2023/08/21 01:24:53;;;;;;;7.47;2.28;;;;;;;;;;4999820;28;25063;-71
2023/08/21 01:27:21;;;;;;;3.10;2.08;;;;;;;;;;4988590;28;25081;-72
2023/08/21 01:29:47;;;;;;;4.13;1.70;;;;;;;;;;4982210;28;25108;-72
2023/08/21 01:32:28;;;;;;;2.95;1.80;;;;;;;;;;4990761;28;25074;-72
2023/08/21 01:34:55;;;;;;;10.52;2.22;;;;;;;;;;4994442;28;25070;-72
2023/08/21 01:37:21;;;;;;;5.13;1.75;;;;;;;;;;4983235;28;25109;-71
2023/08/21 01:39:47;;;;;;;8.45;2.05;;;;;;;;;;4983336;28;25074;-73
2023/08/21 01:42:13;;;;;;;7.47;1.95;;;;;;;;;;4977525;28;25078;-73
2023/08/21 01:44:39;;;;;;;10.35;1.90;;;;;;;;;;4999421;28;25076;-71
2023/08/21 01:47:05;;;;;;;5.78;1.95;;;;;;;;;;4984172;28;25101;-73
2023/08/21 01:49:31;;;;;;;8.95;1.80;;;;;;;;;;4979631;28;25106;-72
2023/08/21 01:51:57;;;;;;;4.57;1.90;;;;;;;;;;4984472;28;25102;-72
2023/08/21 01:54:23;;;;;;;7.50;1.95;;;;;;;;;;4981973;28;25075;-73
2023/08/21 01:56:49;;;;;;;5.45;1.80;;;;;;;;;;4996280;28;25142;-73
2023/08/21 01:59:17;;;;;;;5.28;1.77;;;;;;;;;;4987051;28;25059;-71
2023/08/21 02:01:43;;;;;;;7.32;1.75;;;;;;;;;;5003418;28;25075;-75
2023/08/21 02:04:09;;;;;;;4.95;1.75;;;;;;;;;;4997534;28;25103;-71
2023/08/21 02:06:35;;;;;;;6.47;1.48;;;;;;;;;;4991913;28;25079;-71
2023/08/21 02:09:01;;;;;;;5.07;1.80;;;;;;;;;;4992962;28;25077;-71
2023/08/21 02:11:27;;;;;;;6.07;2.28;;;;;;;;;;4990090;28;25122;-71
2023/08/21 02:13:53;;;;;;;8.48;2.22;;;;;;;;;;4994174;28;25071;-75
2023/08/21 02:16:21;;;;;;;6.20;1.50;;;;;;;;;;4994701;28;25071;-71
2023/08/21 02:18:47;;;;;;;7.80;1.70;;;;;;;;;;4991657;28;25056;-72
2023/08/21 02:21:13;;;;;;;6.20;1.73;;;;;;;;;;4992109;28;25067;-73
2023/08/21 02:23:39;;;;;;;4.63;1.60;;;;;;;;;;4987535;28;25097;-72
2023/08/21 02:26:05;;;;;;;6.43;1.92;;;;;;;;;;4990976;28;25076;-72
2023/08/21 02:28:31;;;;;;;4.70;1.63;;;;;;;;;;4991086;28;25064;-72
2023/08/21 02:30:57;;;;;;;6.25;2.15;;;;;;;;;;4987285;28;25071;-72
2023/08/21 02:33:23;;;;;;;3.00;1.60;;;;;;;;;;4987266;28;25071;-71
2023/08/21 02:35:49;;;;;;;4.03;1.60;;;;;;;;;;4987483;28;25136;-71
2023/08/21 02:38:15;;;;;;;8.07;1.73;;;;;;;;;;4995515;28;25072;-72
2023/08/21 02:40:41;;;;;;;7.03;2.00;;;;;;;;;;4994494;28;25059;-72
2023/08/21 02:43:07;;;;;;;5.70;2.22;;;;;;;;;;4989199;28;25062;-71
2023/08/21 02:45:33;;;;;;;6.63;2.10;;;;;;;;;;4991943;28;25047;-71
2023/08/21 02:47:59;;;;;;;6.60;1.83;;;;;;;;;;4991880;28;25071;-71
2023/08/21 02:50:25;;;;;;;7.25;1.98;;;;;;;;;;4984086;28;25063;-71
2023/08/21 02:52:51;;;;;;;6.88;1.73;;;;;;;;;;4966908;28;25108;-72
2023/08/21 02:55:17;;;;;;;5.80;1.60;;;;;;;;;;4995758;28;25079;-71
2023/08/21 02:57:44;;;;;;;3.95;1.65;;;;;;;;;;4994710;28;25071;-72
2023/08/21 03:00:11;;;;;;;4.70;1.50;;;;;;;;;;4988275;28;25090;-71
2023/08/21 03:02:37;;;;;;;6.60;2.10;;;;;;;;;;4989641;28;25074;-72
2023/08/21 03:05:04;;;;;;;11.57;2.13;;;;;;;;;;4998044;28;25049;-72
2023/08/21 03:07:30;;;;;;;2.83;1.40;;;;;;;;;;4992403;28;25146;-72
2023/08/21 03:09:56;;;;;;;7.60;1.80;;;;;;;;;;4983917;28;25089;-71
2023/08/21 03:12:22;;;;;;;5.18;2.05;;;;;;;;;;4984022;28;25087;-73
2023/08/21 03:14:48;;;;;;;7.85;2.20;;;;;;;;;;4993698;28;25076;-72
2023/08/21 03:17:14;;;;;;;7.45;2.10;;;;;;;;;;4991196;28;25068;-72
2023/08/21 03:19:40;;;;;;;3.47;2.08;;;;;;;;;;4994395;28;25066;-72
2023/08/21 03:22:06;;;;;;;3.90;1.70;;;;;;;;;;4987043;28;25067;-72
2023/08/21 03:24:32;;;;;;;10.82;2.25;;;;;;;;;;4993293;28;25055;-71
2023/08/21 03:26:58;;;;;;;4.13;1.95;;;;;;;;;;4983691;28;25090;-72
2023/08/21 03:29:24;;;;;;;9.27;2.00;;;;;;;;;;4994503;28;25073;-73
2023/08/21 03:31:50;;;;;;;6.82;1.70;;;;;;;;;;4997510;28;25093;-72
2023/08/21 03:34:16;;;;;;;8.38;2.08;;;;;;;;;;4996353;28;25054;-73
2023/08/21 03:36:43;;;;;;;6.38;2.15;;;;;;;;;;4988618;28;25079;-74
2023/08/21 03:39:09;;;;;;;6.28;1.80;;;;;;;;;;4988001;28;25051;-71
2023/08/21 03:41:35;;;;;;;7.47;2.47;;;;;;;;;;4980871;28;25085;-71
2023/08/21 03:44:01;;;;;;;7.25;2.63;;;;;;;;;;4993461;28;25075;-73
2023/08/21 03:46:27;;;;;;;7.63;2.15;;;;;;;;;;4998258;28;25137;-72
2023/08/21 03:48:53;;;;;;;7.82;2.20;;;;;;;;;;4989966;28;25070;-71
2023/08/21 03:51:19;;;;;;;8.18;2.58;;;;;;;;;;4995376;28;25166;-71
2023/08/21 03:53:45;;;;;;;5.88;2.45;;;;;;;;;;4996316;28;25082;-72
2023/08/21 03:56:11;;;;;;;2.92;2.05;;;;;;;;;;4995892;28;25146;-75
2023/08/21 03:58:37;;;;;;;7.20;2.45;;;;;;;;;;4995182;28;25061;-71
2023/08/21 04:01:03;;;;;;;7.20;2.25;;;;;;;;;;4990237;28;25071;-72
2023/08/21 04:03:29;;;;;;;8.98;2.40;;;;;;;;;;4997157;28;25100;-71
2023/08/21 04:05:56;;;;;;;5.30;2.08;;;;;;;;;;4988179;28;25054;-72
2023/08/21 04:08:22;;;;;;;3.88;2.38;;;;;;;;;;4970132;28;25070;-73
2023/08/21 04:10:48;;;;;;;8.75;2.22;;;;;;;;;;4994604;28;25073;-72
2023/08/21 04:13:14;;;;;;;7.97;2.00;;;;;;;;;;4994842;28;25069;-72
2023/08/21 04:15:44;;;;;;;5.70;2.13;;;;;;;;;;4984632;28;25069;-72
2023/08/21 04:18:11;;;;;;;4.85;1.98;;;;;;;;;;5009625;28;25134;-72
2023/08/21 04:20:37;;;;;;;8.48;2.30;;;;;;;;;;5011562;28;25071;-72
2023/08/21 04:23:03;;;;;;;6.10;2.42;;;;;;;;;;5007900;28;25072;-73
2023/08/21 04:25:29;;;;;;;5.22;2.00;;;;;;;;;;4995982;28;25067;-71
2023/08/21 04:27:55;;;;;;;4.72;2.05;;;;;;;;;;4995059;28;25063;-73
2023/08/21 04:30:21;;;;;;;10.73;2.63;;;;;;;;;;4996754;28;25069;-72
2023/08/21 04:32:48;;;;;;;8.93;2.67;;;;;;;;;;4993668;28;25060;-72
2023/08/21 04:35:14;;;;;;;7.05;2.55;;;;;;;;;;4979395;28;25140;-72
2023/08/21 04:37:44;;;;;;;5.72;2.92;;;;;;;;;;4977204;28;25144;-73
2023/08/21 04:40:10;;;;;;;9.55;2.15;;;;;;;;;;4986307;28;25048;-69
2023/08/21 04:42:36;;;;;;;6.18;2.35;;;;;;;;;;4987125;28;25104;-68
2023/08/21 04:45:02;;;;;;;5.35;2.05;;;;;;;;;;4991515;28;25092;-70
2023/08/21 04:47:28;;;;;;;4.63;2.22;;;;;;;;;;4992422;28;25084;-71
2023/08/21 04:49:55;;;;;;;5.90;2.20;;;;;;;;;;4989781;28;25080;-70
2023/08/21 04:52:22;;;;;;;9.93;3.38;;;;;;;;;;4983244;28;25051;-71
2023/08/21 04:54:49;;;;;;;8.82;2.45;;;;;;;;;;4984903;28;25062;-71
2023/08/21 04:57:15;;;;;;;9.25;2.35;;;;;;;;;;4979771;28;25067;-70
2023/08/21 04:59:41;;;;;;;6.18;2.58;;;;;;;;;;4981508;28;25069;-70
2023/08/21 05:02:08;;;;;;;5.80;2.78;;;;;;;;;;4989132;28;25060;-70
2023/08/21 05:04:34;;;;;;;11.13;2.95;;;;;;;;;;4995195;28;25161;-69
2023/08/21 05:07:01;;;;;;;6.03;2.47;;;;;;;;;;4986131;28;25076;-69
2023/08/21 05:09:27;;;;;;;7.22;2.25;;;;;;;;;;4976725;28;25131;-69
2023/08/21 05:11:53;;;;;;;6.70;2.40;;;;;;;;;;4980223;28;25137;-70
2023/08/21 05:14:19;;;;;;;6.97;2.53;;;;;;;;;;4992734;28;25145;-70
2023/08/21 05:16:46;;;;;;;8.05;2.75;;;;;;;;;;4984276;28;25180;-72
2023/08/21 05:19:12;;;;;;;10.15;3.03;;;;;;;;;;4984064;28;25140;-70
2023/08/21 05:21:38;;;;;;;7.60;2.65;;;;;;;;;;4989978;28;25056;-71
2023/08/21 05:24:04;;;;;;;7.30;2.47;;;;;;;;;;4970147;28;25081;-69
2023/08/21 05:26:31;;;;;;;5.68;2.30;;;;;;;;;;4992909;28;25074;-70
2023/08/21 05:28:57;;;;;;;11.38;2.92;;;;;;;;;;4980570;28;25080;-70
2023/08/21 05:31:23;;;;;;;4.88;2.47;;;;;;;;;;4961774;28;25121;-71
2023/08/21 05:33:49;;;;;;;7.03;2.65;;;;;;;;;;4953101;28;25063;-70
2023/08/21 05:36:16;;;;;;;9.57;2.42;;;;;;;;;;4962024;28;25070;-68
2023/08/21 05:38:42;;;;;;;10.68;3.03;;;;;;;;;;4965115;28;25050;-71
2023/08/21 05:41:08;;;;;;;8.23;2.90;;;;;;;;;;4991533;28;25173;-69
2023/08/21 05:43:34;;;;;;;8.68;2.47;;;;;;;;;;4983148;28;25095;-70
2023/08/21 05:46:00;;;;;;;10.10;2.80;;;;;;;;;;4979103;28;25097;-70
2023/08/21 05:48:26;;;;;;;15.73;3.17;;;;;;;;;;4980362;28;25192;-71
2023/08/21 05:50:53;;;;;;;13.27;2.92;;;;;;;;;;4990891;28;25073;-70
2023/08/21 05:53:19;;;;;;;9.13;2.33;;;;;;;;;;4980876;28;25050;-69
2023/08/21 05:55:45;;;;;;;5.72;2.67;;;;;;;;;;4987182;28;25090;-70
2023/08/21 05:58:11;;;;;;;10.48;2.60;;;;;;;;;;4982101;28;25055;-70
2023/08/21 06:00:39;;;;;;;9.70;3.05;;;;;;;;;;4988998;28;25061;-70
2023/08/21 06:03:05;;;;;;;6.53;2.72;;;;;;;;;;5000806;28;25082;-70
2023/08/21 06:05:31;;;;;;;9.93;2.88;;;;;;;;;;4990644;28;25077;-70
2023/08/21 06:07:57;;;;;;;12.48;2.90;;;;;;;;;;4983797;28;25180;-70
2023/08/21 06:10:23;;;;;;;6.20;2.28;;;;;;;;;;4992033;28;25074;-70
2023/08/21 06:12:50;;;;;;;8.18;2.60;;;;;;;;;;4985588;28;25084;-70
2023/08/21 06:15:16;;;;;;;5.63;2.55;;;;;;;;;;4983693;28;25075;-69
2023/08/21 06:17:42;;;;;;;9.93;2.95;;;;;;;;;;4984369;28;25107;-71
2023/08/21 06:20:08;;;;;;;11.35;2.95;;;;;;;;;;4991808;28;25084;-69
2023/08/21 06:22:35;;;;;;;11.48;2.88;;;;;;;;;;4990998;28;25079;-70
2023/08/21 06:25:01;;;;;;;10.98;3.05;;;;;;;;;;4987751;28;25085;-71
2023/08/21 06:27:27;;;;;;;11.77;3.13;;;;;;;;;;4977598;28;25065;-70
2023/08/21 06:29:53;;;;;;;10.50;2.63;;;;;;;;;;4980439;28;25074;-70
2023/08/21 06:32:19;;;;;;;8.50;2.95;;;;;;;;;;4974482;28;25071;-70
2023/08/21 06:34:45;;;;;;;17.20;3.05;;;;;;;;;;4980546;28;25064;-71
2023/08/21 06:37:12;;;;;;;9.70;3.35;;;;;;;;;;4996590;28;25107;-73
2023/08/21 06:39:38;;;;;;;7.60;2.75;;;;;;;;;;4990322;28;25061;-73
2023/08/21 06:42:04;;;;;;;13.07;3.17;;;;;;;;;;4991792;28;25088;-75
2023/08/21 06:44:30;;;;;;;11.43;3.08;;;;;;;;;;4990758;28;25166;-74
2023/08/21 06:46:57;;;;;;;10.35;2.72;;;;;;;;;;4995631;28;25078;-73
2023/08/21 06:49:23;;;;;;;8.98;3.00;;;;;;;;;;4988062;28;25089;-72
2023/08/21 06:51:49;;;;;;;10.25;2.72;;;;;;;;;;4986694;28;25056;-73
2023/08/21 06:54:15;;;;;;;12.95;2.75;;;;;;;;;;4983396;28;25070;-72
2023/08/21 06:56:41;;;;;;;11.27;2.50;;;;;;;;;;4992932;28;25060;-73
2023/08/21 06:59:08;;;;;;;10.00;3.60;;;;;;;;;;4996605;28;25067;-73
2023/08/21 07:01:34;;;;;;;10.18;2.90;;;;;;;;;;4988152;28;25171;-71
2023/08/21 07:04:00;;;;;;;12.15;3.17;;;;;;;;;;4989412;28;25080;-72
2023/08/21 07:06:28;;;;;;;9.95;3.15;;;;;;;;;;4968730;28;25078;-72
2023/08/21 07:08:54;;;;;;;6.97;2.33;;;;;;;;;;4979786;28;25062;-72
2023/08/21 07:11:20;;;;;;;8.05;2.50;;;;;;;;;;4988638;28;25060;-72
2023/08/21 07:13:46;;;;;;;8.48;2.63;;;;;;;;;;4982774;28;25050;-74
2023/08/21 07:16:12;;;;;;;17.75;3.95;;;;;;;;;;4996514;28;25062;-73
2023/08/21 07:18:38;;;;;;;9.48;2.67;;;;;;;;;;4992222;28;25060;-73
2023/08/21 07:21:05;;;;;;;8.32;2.60;;;;;;;;;;4987148;28;25085;-73
2023/08/21 07:23:34;;;;;;;12.40;2.83;;;;;;;;;;4980161;28;25063;-72
2023/08/21 07:26:00;;;;;;;13.07;2.70;;;;;;;;;;4984772;28;25053;-73
2023/08/21 07:28:26;;;;;;;10.70;2.35;;;;;;;;;;4982823;28;25092;-71
2023/08/21 07:30:56;;;;;;;7.43;2.20;;;;;;;;;;4986159;28;25111;-72
2023/08/21 07:33:22;;;;;;;16.27;2.72;;;;;;;;;;4976590;28;25063;-71
2023/08/21 07:35:48;;;;;;;8.98;2.83;;;;;;;;;;4981964;28;25079;-73
2023/08/21 07:38:14;;;;;;;10.90;3.13;;;;;;;;;;4973538;28;25087;-71
2023/08/21 07:40:40;;;;;;;5.82;2.05;;;;;;;;;;4985000;28;25106;-74
2023/08/21 07:43:06;;;;;;;10.75;2.63;;;;;;;;;;4991955;28;25066;-71
2023/08/21 07:45:32;;;;;;;9.88;2.70;;;;;;;;;;4990986;28;25068;-72
2023/08/21 07:47:58;;;;;;;7.55;2.45;;;;;;;;;;4983994;28;25062;-72
2023/08/21 07:50:24;;;;;;;7.50;2.00;;;;;;;;;;4976538;28;25127;-74
2023/08/21 07:52:50;;;;;;;9.35;2.70;;;;;;;;;;4977282;28;25063;-73
2023/08/21 07:55:16;;;;;;;14.30;2.78;;;;;;;;;;4983073;28;25106;-73
2023/08/21 07:57:42;;;;;;;10.15;2.97;;;;;;;;;;4973570;28;25110;-74
2023/08/21 08:00:09;;;;;;;9.70;2.40;;;;;;;;;;4982003;28;25077;-73
2023/08/21 08:02:35;;;;;;;9.82;2.20;;;;;;;;;;4973781;28;25100;-72
2023/08/21 08:05:01;;;;;;;9.10;2.35;;;;;;;;;;4979978;28;25095;-72
2023/08/21 08:07:27;;;;;;;17.27;2.85;;;;;;;;;;4983162;28;25059;-73
2023/08/21 08:09:53;;;;;;;10.05;2.40;;;;;;;;;;4977355;28;25056;-72
2023/08/21 08:12:19;;;;;;;9.13;1.95;;;;;;;;;;4976369;28;25061;-72
2023/08/21 08:14:46;;;;;;;6.93;1.80;;;;;;;;;;4986286;28;25101;-74
2023/08/21 08:17:12;;;;;;;7.60;2.25;;;;;;;;;;4987118;28;25101;-72
2023/08/21 08:19:38;;;;;;;4.75;1.70;;;;;;;;;;4986191;28;25085;-73
2023/08/21 08:22:04;;;;;;;5.47;1.85;;;;;;;;;;4989019;28;25071;-75
2023/08/21 08:24:30;;;;;;;5.93;2.15;;;;;;;;;;4983560;28;25126;-73
2023/08/21 08:26:57;;;;;;;7.32;2.30;;;;;;;;;;4985132;28;25129;-70
2023/08/21 08:29:23;;;;;;;9.30;2.25;;;;;;;;;;4986381;28;25122;-72
2023/08/21 08:31:49;;;;;;;8.90;1.75;;;;;;;;;;4986639;28;25078;-71
2023/08/21 08:34:17;;;;;;;9.85;2.47;;;;;;;;;;4985681;28;25103;-72
2023/08/21 08:36:43;;;;;;;13.15;2.15;;;;;;;;;;4983125;28;25137;-73
2023/08/21 08:39:10;;;;;;;7.75;2.13;;;;;;;;;;4989276;28;25069;-74
2023/08/21 08:41:44;;;;;;;5.22;2.20;;;;;;;;;;4990606;28;25052;-72
2023/08/21 08:44:11;;;;;;;7.68;1.55;;;;;;;;;;4974291;28;25176;-72
2023/08/21 08:46:37;;;;;;;8.43;1.88;;;;;;;;;;4984814;28;25061;-72
2023/08/21 08:49:04;;;;;;;12.80;2.80;;;;;;;;;;4982360;28;25076;-73
2023/08/21 08:51:30;;;;;;;11.00;2.60;;;;;;;;;;4987554;28;25068;-74
2023/08/21 08:53:58;;;;;;;9.35;2.05;;;;;;;;;;4989202;28;25087;-72
2023/08/21 08:56:24;;;;;;;9.27;1.70;;;;;;;;;;4997774;28;25065;-72
2023/08/21 08:58:51;;;;;;;12.30;2.25;;;;;;;;;;4974988;28;25076;-75
2023/08/21 09:01:17;;;;;;;8.57;2.45;;;;;;;;;;4988314;28;25146;-74
2023/08/21 09:03:43;;;;;;;10.13;2.40;;;;;;;;;;4992065;28;25078;-71
2023/08/21 09:06:09;;;;;;;9.98;1.70;;;;;;;;;;4986991;28;25057;-72
2023/08/21 09:08:35;;;;;;;4.90;1.73;;;;;;;;;;4988920;28;25064;-73
2023/08/21 09:11:05;;;;;;;5.93;1.38;;;;;;;;;;4984923;28;25101;-73
2023/08/21 09:13:31;;;;;;;6.10;1.65;;;;;;;;;;4978879;28;25075;-72
2023/08/21 09:15:57;;;;;;;6.18;1.85;;;;;;;;;;4990167;28;25086;-72
2023/08/21 09:18:23;;;;;;;10.88;1.75;;;;;;;;;;4977661;28;25045;-74
2023/08/21 09:20:49;;;;;;;8.20;2.40;;;;;;;;;;4987056;28;25081;-71
2023/08/21 09:23:19;;;;;;;5.18;1.70;;;;;;;;;;4990814;28;25053;-74
2023/08/21 09:25:47;;;;;;;6.28;1.70;;;;;;;;;;4987424;28;25095;-72
2023/08/21 09:28:14;;;;;;;8.68;1.85;;;;;;;;;;4977792;28;25124;-73
2023/08/21 09:30:50;;;;;;;7.53;1.92;;;;;;;;;;4995032;28;25058;-73
2023/08/21 09:33:19;;;;;;;11.25;2.03;;;;;;;;;;4985336;28;25158;-73
2023/08/21 09:35:45;;;;;;;3.95;1.40;;;;;;;;;;4981899;28;25069;-73
2023/08/21 09:38:12;;;;;;;9.25;1.40;;;;;;;;;;4977356;28;25139;-72
2023/08/21 09:40:41;;;;;;;7.75;1.90;;;;;;;;;;4984017;28;25144;-73
2023/08/21 09:43:09;;;;;;;7.40;1.75;;;;;;;;;;4986448;28;25146;-73
2023/08/21 09:45:35;;;;;;;6.13;1.52;;;;;;;;;;4984317;28;25135;-73
2023/08/21 09:48:02;;;;;;;9.32;2.00;;;;;;;;;;4981734;28;25085;-73
2023/08/21 09:50:29;;;;;;;8.00;1.42;;;;;;;;;;4980074;28;25078;-74
2023/08/21 09:52:56;;;;;;;8.23;1.60;;;;;;;;;;4980113;28;25064;-74
2023/08/21 09:55:22;;;;;;;8.77;2.13;;;;;;;;;;4989480;28;25057;-72
2023/08/21 09:57:57;;;;;;;10.07;1.90;;;;;;;;;;4974113;28;25082;-72
2023/08/21 10:00:23;;;;;;;9.13;1.88;;;;;;;;;;4981088;28;25160;-71
2023/08/21 10:02:52;;;;;;;7.07;1.75;;;;;;;;;;4975480;28;25070;-71
2023/08/21 10:05:18;;;;;;;2.97;1.02;;;;;;;;;;4985806;28;25120;-73
2023/08/21 10:07:44;;;;;;;3.10;1.13;;;;;;;;;;4977859;28;25072;-73
2023/08/21 10:10:12;;;;;;;5.50;1.30;;;;;;;;;;4985520;28;25091;-72
2023/08/21 10:12:38;;;;;;;3.42;1.20;;;;;;;;;;4982868;28;25070;-75
2023/08/21 10:15:05;;;;;;;5.78;1.33;;;;;;;;;;4978834;28;25066;-73
2023/08/21 10:17:32;;;;;;;5.57;1.20;;;;;;;;;;4979078;28;25168;-71
2023/08/21 10:20:03;;;;;;;4.75;1.10;;;;;;;;;;4987611;28;25077;-72
2023/08/21 10:22:39;;;;;;;8.47;1.57;;;;;;;;;;4995576;28;25053;-72
2023/08/21 10:25:14;;;;;;;3.28;1.17;;;;;;;;;;4988846;28;25091;-73
2023/08/21 10:27:42;;;;;;;13.52;2.15;;;;;;;;;;4986252;28;25093;-72
2023/08/21 10:30:13;;;;;;;11.60;1.83;;;;;;;;;;4981498;28;25052;-71
2023/08/21 10:32:44;;;;;;;3.60;1.00;;;;;;;;;;4993352;28;25053;-71
2023/08/21 10:35:15;;;;;;;3.33;1.00;;;;;;;;;;4978526;28;25100;-71
2023/08/21 10:37:59;;;;;;;2.35;0.85;;;;;;;;;;4992803;28;25060;-73
2023/08/21 10:40:26;;;;;;;3.80;1.30;;;;;;;;;;4997720;28;25087;-71
2023/08/21 10:42:52;;;;;;;4.38;1.20;;;;;;;;;;4976817;28;25083;-71
2023/08/21 10:45:18;;;;;;;2.00;0.85;;;;;;;;;;4986477;28;25078;-73
2023/08/21 10:47:46;;;;;;;4.82;2.00;;;;;;;;;;4993932;28;25086;-74
2023/08/21 10:50:12;;;;;;;8.02;2.10;;;;;;;;;;4997971;28;25097;-74
2023/08/21 10:52:41;;;;;;;4.05;1.45;;;;;;;;;;4992933;28;25078;-75
2023/08/21 10:55:09;;;;;;;3.50;1.20;;;;;;;;;;4998782;28;25077;-73
2023/08/21 10:57:35;;;;;;;6.25;1.25;;;;;;;;;;4994436;28;25081;-74
2023/08/21 11:00:03;;;;;;;4.57;1.38;;;;;;;;;;4999997;28;25065;-74
2023/08/21 11:02:30;;;;;;;3.63;1.48;;;;;;;;;;4989563;28;25113;-73
2023/08/21 11:04:56;;;;;;;6.28;1.63;;;;;;;;;;4994732;28;25060;-72
2023/08/21 11:07:22;;;;;;;3.22;1.20;;;;;;;;;;4969289;28;25068;-73
2023/08/21 11:09:49;;;;;;;5.15;1.42;;;;;;;;;;4988628;28;25081;-74
2023/08/21 11:12:16;;;;;;;3.63;1.20;;;;;;;;;;4969511;28;25057;-73
2023/08/21 11:14:43;;;;;;;10.63;1.77;;;;;;;;;;4979360;28;25060;-73
2023/08/21 11:17:09;;;;;;;3.88;1.70;;;;;;;;;;4984754;28;25080;-74
2023/08/21 11:19:36;;;;;;;4.43;1.50;;;;;;;;;;4995608;28;25052;-73
2023/08/21 11:22:06;;;;;;;4.43;1.20;;;;;;;;;;4996258;28;25049;-74
2023/08/21 11:24:41;;;;;;;4.97;1.58;;;;;;;;;;4999075;28;25061;-74
2023/08/21 11:27:09;;;;;;;4.78;1.40;;;;;;;;;;4981838;28;25076;-74
2023/08/21 11:29:39;;;;;;;5.03;1.10;;;;;;;;;;4995979;28;25053;-73
2023/08/21 11:32:11;;;;;;;5.45;1.20;;;;;;;;;;4995262;28;25071;-73
2023/08/21 11:34:37;;;;;;;6.25;1.40;;;;;;;;;;4991952;28;25055;-71
2023/08/21 11:37:04;;;;;;;3.30;1.20;;;;;;;;;;5003613;28;25171;-72
2023/08/21 11:39:41;;;;;;;2.97;1.27;;;;;;;;;;4988231;28;25109;-71
2023/08/21 11:42:14;;;;;;;7.10;0.90;;;;;;;;;;4981174;28;25080;-70
2023/08/21 11:44:59;;;;;;;4.20;1.25;;;;;;;;;;4992366;28;25072;-70
2023/08/21 11:47:30;;;;;;;2.83;1.23;;;;;;;;;;4981592;28;25183;-70
2023/08/21 11:49:56;;;;;;;3.92;1.15;;;;;;;;;;4985700;28;25086;-70
2023/08/21 11:52:25;;;;;;;4.70;1.10;;;;;;;;;;4965344;28;25125;-70
2023/08/21 11:54:52;;;;;;;4.57;1.40;;;;;;;;;;4998885;28;25057;-70
2023/08/21 11:57:18;;;;;;;4.38;1.30;;;;;;;;;;4978873;28;25072;-71
2023/08/21 11:59:50;;;;;;;1.90;1.17;;;;;;;;;;4979287;28;25104;-70
2023/08/21 12:02:16;;;;;;;;;;;;;;;;;;4971879;28;25138;-70
2023/08/21 12:04:42;;;;;;;4.63;1.33;;;;;;;;;;4985163;28;25124;-71
2023/08/21 12:07:08;;;;;;;4.78;1.23;;;;;;;;;;4983149;28;25054;-71
2023/08/21 12:09:34;;;;;;;2.38;1.13;;;;;;;;;;4983856;28;25050;-70
2023/08/21 12:12:00;;;;;;;2.63;1.10;;;;;;;;;;4989485;28;25072;-70
2023/08/21 12:14:28;;;;;;;2.42;1.00;;;;;;;;;;4987462;28;25066;-70
2023/08/21 12:16:54;;;;;;;2.58;1.33;;;;;;;;;;4980473;28;25065;-71
2023/08/21 12:19:21;;;;;;;9.60;1.48;;;;;;;;;;4988424;28;25145;-69
2023/08/21 12:21:47;;;;;;;1.73;0.98;;;;;;;;;;4987796;28;25181;-70
2023/08/21 12:24:13;;;;;;;4.00;1.25;;;;;;;;;;4981982;28;25129;-69
2023/08/21 12:26:39;;;;;;;6.90;1.05;;;;;;;;;;4974108;28;25141;-70
2023/08/21 12:29:05;;;;;;;5.07;1.27;;;;;;;;;;4972814;28;25052;-71
2023/08/21 12:31:31;;;;;;;6.03;1.50;;;;;;;;;;4966092;28;25069;-70
2023/08/21 12:33:58;;;;;;;2.58;1.10;;;;;;;;;;4960031;28;25070;-70
2023/08/21 12:36:24;;;;;;;6.78;1.23;;;;;;;;;;4964713;28;25160;-71
2023/08/21 12:38:50;;;;;;;2.67;1.25;;;;;;;;;;4961571;28;25134;-70
2023/08/21 12:41:16;;;;;;;5.78;1.15;;;;;;;;;;4970485;28;25133;-70
2023/08/21 12:43:42;;;;;;;1.15;0.73;;;;;;;;;;4970484;28;25055;-70
2023/08/21 12:46:08;;;;;;;2.28;0.75;;;;;;;;;;4976947;28;25069;-70
2023/08/21 12:48:34;;;;;;;3.42;1.35;;;;;;;;;;4986265;28;25065;-71
2023/08/21 12:51:00;;;;;;;3.08;0.90;;;;;;;;;;4989871;28;25173;-72
2023/08/21 12:53:25;;;;;;;5.57;1.20;;;;;;;;;;4986647;28;25077;-69
2023/08/21 12:55:52;;;;;;;5.25;1.15;;;;;;;;;;4996377;28;25070;-71
2023/08/21 12:58:18;;;;;;;3.72;0.85;;;;;;;;;;4985841;28;25149;-70
2023/08/21 13:00:44;;;;;;;5.85;0.95;;;;;;;;;;4982980;28;25095;-70
2023/08/21 13:03:10;;;;;;;3.90;1.30;;;;;;;;;;4978606;28;25105;-69
2023/08/21 13:05:36;;;;;;;3.83;1.00;;;;;;;;;;4986736;28;25165;-71
2023/08/21 13:08:03;;;;;;;1.95;0.98;;;;;;;;;;4987241;28;25096;-70
2023/08/21 13:10:28;;;;;;;4.40;1.10;;;;;;;;;;4989863;28;25080;-71
2023/08/21 13:12:54;;;;;;;3.55;0.77;;;;;;;;;;4982684;28;25065;-71
2023/08/21 13:15:20;;;;;;;3.55;0.77;;;;;;;;;;4982246;28;25050;-69
2023/08/21 13:17:46;;;;;;;1.23;0.73;;;;;;;;;;4982203;28;25069;-69
2023/08/21 13:20:12;;;;;;;2.17;1.05;;;;;;;;;;4982747;28;25076;-70
2023/08/21 13:22:46;;;;;;;2.90;0.98;;;;;;;;;;4967101;28;25107;-70
2023/08/21 13:25:11;;;;;;;4.18;1.23;;;;;;;;;;4982800;28;25179;-69
2023/08/21 13:27:37;;;;;;;4.68;0.95;;;;;;;;;;4984509;28;25057;-69
2023/08/21 13:30:05;;;;;;;5.63;1.13;;;;;;;;;;4979153;28;25169;-70
2023/08/21 13:32:31;;;;;;;4.22;1.00;;;;;;;;;;4989895;28;25107;-70
2023/08/21 13:34:57;;;;;;;3.03;0.70;;;;;;;;;;4980303;28;25083;-70
2023/08/21 13:37:23;;;;;;;4.32;1.05;;;;;;;;;;4983582;28;25091;-70
2023/08/21 13:39:49;;;;;;;4.20;1.30;;;;;;;;;;4990080;28;25091;-70
2023/08/21 13:42:15;;;;;;;4.68;1.27;;;;;;;;;;4986082;28;25104;-71
2023/08/21 13:44:41;;;;;;;2.33;0.80;;;;;;;;;;4973281;28;25087;-70
2023/08/21 13:47:07;;;;;;;11.25;1.02;;;;;;;;;;4977215;28;25134;-72
2023/08/21 13:49:33;;;;;;;4.93;1.10;;;;;;;;;;4980303;28;25093;-70
2023/08/21 13:51:59;;;;;;;1.92;0.85;;;;;;;;;;4984641;28;25090;-70
2023/08/21 13:54:25;;;;;;;4.30;1.08;;;;;;;;;;4974101;28;25072;-70
2023/08/21 13:56:51;;;;;;;1.55;0.75;;;;;;;;;;4968822;28;25142;-70
2023/08/21 13:59:17;;;;;;;4.95;0.90;;;;;;;;;;4974771;28;25131;-70
2023/08/21 14:01:43;;;;;;;4.38;1.30;;;;;;;;;;4982144;28;25064;-70
2023/08/21 14:04:09;;;;;;;1.17;0.85;;;;;;;;;;4981367;28;25071;-70
2023/08/21 14:06:35;;;;;;;5.57;0.80;;;;;;;;;;4983634;28;25076;-70
2023/08/21 14:09:01;;;;;;;2.95;1.00;;;;;;;;;;4972179;28;25168;-71
2023/08/21 14:11:27;;;;;;;4.10;1.05;;;;;;;;;;4963521;28;25091;-71
2023/08/21 14:13:53;;;;;;;3.33;1.10;;;;;;;;;;4982780;28;25109;-70
2023/08/21 14:16:19;;;;;;;6.00;1.10;;;;;;;;;;4979584;28;25083;-70
2023/08/21 14:18:45;;;;;;;6.38;1.20;;;;;;;;;;4981716;28;25099;-69
2023/08/21 14:21:11;;;;;;;3.30;0.95;;;;;;;;;;4978687;28;25075;-71
2023/08/21 14:23:39;;;;;;;3.90;1.08;;;;;;;;;;4969036;28;25107;-70
2023/08/21 14:26:05;;;;;;;2.10;0.85;;;;;;;;;;4977959;28;25071;-69
2023/08/21 14:28:31;;;;;;;2.35;1.00;;;;;;;;;;4981752;28;25063;-70
2023/08/21 14:30:57;;;;;;;4.03;1.00;;;;;;;;;;4983408;28;25063;-70
2023/08/21 14:33:23;;;;;;;2.78;1.10;;;;;;;;;;4981763;28;25138;-70
2023/08/21 14:35:49;;;;;;;1.42;0.80;;;;;;;;;;4982875;28;25067;-69
2023/08/21 14:38:15;;;;;;;5.60;0.93;;;;;;;;;;4976861;28;25102;-71